Terminal Aerodrome Forecast
Issued by NWS

Home | Current Version | Previous Version | Text Only | Print | Product List | Glossary On
Versions: 1 2 3 4 5 6 7 8 9 10 11 12 13 14 15 16 17 18 19 20 21 22 23
000
FTUS44 KLZK 100500 RRA
TAFBPK
TAF
KBPK 100540Z 1006/1106 00000KT P6SM SCT050 SCT250
     FM101500 11005KT P6SM SCT100 BKN250 PROB30 1018/1024 5SM -TSRA
      BKN040CB
     FM110000 12004KT P6SM SCT250=

USA.gov is the U.S. government's official web portal to all federal, state and local government web resources and services.